Terminal Aerodrome Forecast
Issued by NWS Wilmington, OH

Current Version | Previous Version | Graphics & Text | Print | Product List | Glossary On
Versions: 1 2 3 4 5 6 7 8 9 10 11 12 13 14 15 16 17 18 19 20 21 22 23 24 25 26 27 28 29 30 31 32
540
FTUS41 KILN 181136
TAFCVG
TAF
KCVG 181136Z 1812/1918 27012KT P6SM VCSH OVC012
      TEMPO 1812/1813 5SM -DZ BR OVC006
     FM181300 26008KT P6SM OVC009
     FM181500 25008KT P6SM OVC015
     FM182200 23006KT P6SM BKN025
     FM190300 20005KT P6SM SCT025
     FM190600 19004KT P6SM BKN250
     FM191200 13007KT P6SM OVC060=

USA.gov is the U.S. government's official web portal to all federal, state and local government web resources and services.